To NAV CANADA Home Page Login to a new session Search on AWWS site Feedback and Comments Disclaimer Vers la page française équivalente Tips FAQ What's new on the site To the Forecasts and Observations / NOTAM section To "File a Flight Plan" website Publications and other links Update of the User's profile FIC Telephone Numbers My Weather Data Folder Route Weather Data Regional Weather Data Local Weather Data To the Forecasts and Observations / NOTAM section
Request Generated 10/17/2017 at 01:49:26 UTC . Weather information available at that time is displayed.

METAR/TAF

OTTAWA/GATINEAU/QC    

METAR CYND 170100Z 32003KT 15SM FEW060 00/M01 A3021 RMK SC1 SC TR
LAST STFD OBS/NEXT 171100 UTC SLP233=
METAR CYND 170000Z 25003KT 250V340 15SM FEW060 01/M00 A3020 RMK SC2
SLP230=
METAR CYND 162300Z 31003KT 15SM SCT060 03/00 A3019 RMK SC4 SLP227=

*** REMARK        : Forecast period has ended; this was the last TAF issued
*** REMARQUE : La période de prévision est échue; ceci était le dernier TAF qui a été émis
TAF AMD CYND 162112Z 1621/1701 29006KT P6SM BKN060
RMK NXT FCST WILL BE ISSUED AT 171245Z=
Your time UTC time
Weather data provided by Environment Canada and NAV CANADA